createdAt,value
2023-01-18T00:01:47.736Z,10.38
2023-01-18T00:04:14.286Z,10.88
2023-01-18T00:06:40.664Z,9.90
2023-01-18T00:09:07.211Z,10.20
2023-01-18T00:11:33.712Z,10.77
2023-01-18T00:14:00.105Z,10.63
2023-01-18T00:16:26.541Z,10.40
2023-01-18T00:18:55.036Z,10.05
2023-01-18T00:21:21.513Z,10.13
2023-01-18T00:23:47.977Z,10.25
2023-01-18T00:26:14.321Z,10.57
2023-01-18T00:28:41.001Z,12.63
2023-01-18T00:31:11.882Z,9.93
2023-01-18T00:33:38.266Z,9.93
2023-01-18T00:36:06.404Z,10.65
2023-01-18T00:38:33.037Z,10.90
2023-01-18T00:40:59.405Z,10.57
2023-01-18T00:43:25.874Z,10.00
2023-01-18T00:45:52.288Z,10.73
2023-01-18T00:48:18.758Z,10.45
2023-01-18T00:50:45.149Z,11.02
2023-01-18T00:53:12.969Z,11.73
2023-01-18T00:55:39.372Z,10.80
2023-01-18T00:58:05.779Z,11.48
2023-01-18T01:00:32.330Z,12.77
2023-01-18T01:02:59.295Z,11.15
2023-01-18T01:05:26.723Z,12.18
2023-01-18T01:07:53.196Z,12.50
2023-01-18T01:10:21.074Z,11.43
2023-01-18T01:12:47.554Z,14.07
2023-01-18T01:15:14.026Z,11.77
2023-01-18T01:17:40.470Z,12.02
2023-01-18T01:20:07.628Z,12.13
2023-01-18T01:22:35.262Z,12.70
2023-01-18T01:25:01.697Z,12.23
2023-01-18T01:27:29.485Z,12.45
2023-01-18T01:29:55.876Z,12.32
2023-01-18T01:32:22.369Z,12.65
2023-01-18T01:34:48.717Z,11.85
2023-01-18T01:37:15.223Z,12.88
2023-01-18T01:39:41.570Z,12.60
2023-01-18T01:42:10.094Z,12.35
2023-01-18T01:44:42.955Z,13.65
2023-01-18T01:49:38.224Z,11.52
2023-01-18T01:52:05.776Z,11.93
2023-01-18T01:54:39.106Z,11.90
2023-01-18T01:57:08.667Z,12.32
2023-01-18T01:59:35.944Z,11.98
2023-01-18T02:02:04.385Z,12.48
2023-01-18T02:04:31.258Z,12.32
2023-01-18T02:06:57.653Z,12.52
2023-01-18T02:09:24.412Z,12.05
2023-01-18T02:11:51.828Z,12.65
2023-01-18T02:14:19.961Z,12.13
2023-01-18T02:16:56.659Z,12.02
2023-01-18T02:19:38.548Z,12.63
2023-01-18T02:22:09.314Z,13.05
2023-01-18T02:24:57.415Z,12.07
2023-01-18T02:27:26.169Z,12.40
2023-01-18T02:30:07.081Z,12.15
2023-01-18T02:32:45.972Z,13.75
2023-01-18T02:35:15.174Z,13.98
2023-01-18T02:37:44.898Z,12.48
2023-01-18T02:40:14.502Z,12.38
2023-01-18T02:42:42.296Z,12.52
2023-01-18T02:45:13.667Z,13.48
2023-01-18T02:47:40.621Z,13.80
2023-01-18T02:50:07.624Z,13.85
2023-01-18T02:52:37.932Z,13.57
2023-01-18T02:55:05.200Z,15.02
2023-01-18T02:57:32.357Z,13.52
2023-01-18T03:00:00.167Z,14.10
2023-01-18T03:02:28.309Z,13.85
2023-01-18T03:04:55.290Z,13.52
2023-01-18T03:07:24.199Z,13.18
2023-01-18T03:09:50.812Z,13.45
2023-01-18T03:12:23.263Z,13.88
2023-01-18T03:14:53.733Z,13.85
2023-01-18T03:17:23.574Z,13.73
2023-01-18T03:19:52.040Z,13.32
2023-01-18T03:22:18.428Z,13.45
2023-01-18T03:24:45.772Z,13.88
2023-01-18T03:27:12.809Z,13.55
2023-01-18T03:29:39.390Z,13.75
2023-01-18T03:32:08.072Z,13.30
2023-01-18T03:34:37.876Z,13.45
2023-01-18T03:37:08.084Z,13.77
2023-01-18T03:39:36.592Z,13.00
2023-01-18T03:42:05.987Z,14.70
2023-01-18T03:44:34.770Z,14.38
2023-01-18T03:47:01.388Z,14.57
2023-01-18T03:49:27.943Z,13.77
2023-01-18T03:51:59.521Z,13.63
2023-01-18T03:54:29.961Z,14.35
2023-01-18T03:56:59.415Z,14.45
2023-01-18T03:59:29.914Z,14.05
2023-01-18T04:01:56.840Z,13.60
2023-01-18T04:04:23.263Z,14.40
2023-01-18T04:06:49.714Z,14.18
2023-01-18T04:09:16.173Z,13.77
2023-01-18T04:11:44.266Z,14.07
2023-01-18T04:14:10.688Z,13.70
2023-01-18T04:16:37.075Z,15.02
2023-01-18T04:19:03.453Z,13.93
2023-01-18T04:21:29.952Z,14.60
2023-01-18T04:23:56.321Z,15.18
2023-01-18T04:26:22.719Z,13.80
2023-01-18T04:28:50.527Z,14.52
2023-01-18T04:31:17.013Z,14.65
2023-01-18T04:33:43.479Z,14.82
2023-01-18T04:36:09.918Z,14.48
2023-01-18T04:38:36.454Z,14.88
2023-01-18T04:41:03.274Z,15.32
2023-01-18T04:43:29.733Z,14.10
2023-01-18T04:45:57.529Z,15.02
2023-01-18T04:48:24.586Z,14.32
2023-01-18T04:50:51.035Z,15.48
2023-01-18T04:53:17.725Z,14.98
2023-01-18T04:55:44.212Z,15.35
2023-01-18T04:58:10.734Z,15.35
2023-01-18T05:00:37.218Z,14.43
2023-01-18T05:03:05.065Z,16.23
2023-01-18T05:05:31.658Z,14.40
2023-01-18T05:07:58.005Z,16.38
2023-01-18T05:10:24.469Z,16.48
2023-01-18T05:12:50.832Z,16.00
2023-01-18T05:15:17.211Z,15.60
2023-01-18T05:17:43.652Z,16.65
2023-01-18T05:20:12.242Z,16.48
2023-01-18T05:22:38.632Z,17.25
2023-01-18T05:25:05.686Z,14.75
2023-01-18T05:27:32.124Z,15.68
2023-01-18T05:29:58.668Z,15.73
2023-01-18T05:32:25.459Z,15.95
2023-01-18T05:34:51.917Z,16.13
2023-01-18T05:37:19.902Z,16.50
2023-01-18T05:39:46.382Z,15.55
2023-01-18T05:42:12.784Z,16.27
2023-01-18T05:44:39.266Z,15.20
2023-01-18T05:47:05.688Z,15.68
2023-01-18T05:49:32.155Z,14.85
2023-01-18T05:51:58.557Z,15.43
2023-01-18T05:54:26.429Z,15.43
2023-01-18T05:56:52.775Z,16.63
2023-01-18T05:59:19.219Z,15.45
2023-01-18T06:01:45.608Z,16.77
2023-01-18T06:04:12.117Z,15.68
2023-01-18T06:06:38.555Z,15.77
2023-01-18T06:09:04.971Z,15.98
2023-01-18T06:11:32.672Z,15.70
2023-01-18T06:13:59.141Z,17.17
2023-01-18T06:16:25.592Z,16.00
2023-01-18T06:18:52.126Z,17.05
2023-01-18T06:21:18.549Z,16.33
2023-01-18T06:23:44.927Z,17.35
2023-01-18T06:26:11.467Z,18.33
2023-01-18T06:28:39.227Z,16.73
2023-01-18T06:31:05.657Z,17.77
2023-01-18T06:33:32.042Z,18.13
2023-01-18T06:35:58.532Z,16.80
2023-01-18T06:38:25.089Z,17.50
2023-01-18T06:40:51.472Z,17.95
2023-01-18T06:43:17.910Z,18.20
2023-01-18T06:45:52.376Z,20.38
2023-01-18T06:48:18.934Z,17.42
2023-01-18T06:50:45.342Z,17.10
2023-01-18T06:53:11.760Z,16.70
2023-01-18T06:55:38.136Z,16.15
2023-01-18T06:58:04.502Z,15.93
2023-01-18T07:00:31.547Z,18.17
2023-01-18T07:02:59.642Z,15.50
2023-01-18T07:05:26.361Z,17.35
2023-01-18T07:07:52.751Z,16.95
2023-01-18T07:10:19.269Z,16.50
2023-01-18T07:12:45.612Z,17.08
2023-01-18T07:15:21.087Z,17.10
2023-01-18T07:17:48.612Z,15.57
2023-01-18T07:20:16.730Z,16.20
2023-01-18T07:22:43.161Z,15.80
2023-01-18T07:25:09.580Z,16.23
2023-01-18T07:27:36.595Z,15.63
2023-01-18T07:30:03.337Z,16.17
2023-01-18T07:32:29.900Z,16.13
2023-01-18T07:34:58.579Z,17.02
2023-01-18T07:37:27.329Z,16.60
2023-01-18T07:39:53.755Z,15.38
2023-01-18T07:42:20.458Z,15.30
2023-01-18T07:44:46.896Z,16.67
2023-01-18T07:47:13.280Z,16.08
2023-01-18T07:49:39.657Z,16.25
2023-01-18T07:52:06.036Z,15.95
2023-01-18T07:54:33.792Z,16.83
2023-01-18T07:57:00.536Z,16.73
2023-01-18T07:59:26.968Z,16.58
2023-01-18T08:01:53.571Z,15.85
2023-01-18T08:04:20.052Z,17.27
2023-01-18T08:06:46.582Z,16.33
2023-01-18T08:09:12.931Z,17.60
2023-01-18T08:11:40.875Z,17.98
2023-01-18T08:14:07.340Z,16.98
2023-01-18T08:16:34.078Z,17.80
2023-01-18T08:19:00.660Z,16.73
2023-01-18T08:21:27.199Z,17.58
2023-01-18T08:23:53.616Z,17.90
2023-01-18T08:26:20.058Z,18.30
2023-01-18T08:28:47.866Z,17.73
2023-01-18T08:31:15.464Z,17.27
2023-01-18T08:33:42.673Z,17.45
2023-01-18T08:36:09.715Z,18.30
2023-01-18T08:38:36.201Z,19.38
2023-01-18T08:41:02.660Z,20.13
2023-01-18T08:43:29.284Z,17.73
2023-01-18T08:45:57.126Z,18.15
2023-01-18T08:48:23.529Z,18.88
2023-01-18T08:50:51.763Z,19.52
2023-01-18T08:53:18.300Z,18.95
2023-01-18T08:55:44.761Z,19.42
2023-01-18T08:58:11.214Z,18.70
2023-01-18T09:00:37.595Z,19.10
2023-01-18T09:03:05.599Z,18.65
2023-01-18T09:05:33.785Z,19.42
2023-01-18T09:08:00.347Z,19.10
2023-01-18T09:10:27.014Z,19.85
2023-01-18T09:12:54.107Z,19.90
2023-01-18T09:15:20.754Z,21.20
2023-01-18T09:17:47.295Z,20.35
2023-01-18T09:20:17.715Z,19.77
2023-01-18T09:22:45.269Z,19.27
2023-01-18T09:25:11.688Z,18.45
2023-01-18T09:27:38.079Z,19.15
2023-01-18T09:30:05.178Z,20.48
2023-01-18T09:32:31.722Z,19.75
2023-01-18T09:34:58.152Z,19.35
2023-01-18T09:37:26.065Z,20.20
2023-01-18T09:39:52.848Z,20.38
2023-01-18T09:42:20.773Z,19.73
2023-01-18T09:44:47.915Z,22.48
2023-01-18T09:47:17.658Z,21.45
2023-01-18T09:49:47.207Z,21.13
2023-01-18T09:52:22.461Z,19.58
2023-01-18T09:54:53.482Z,20.65
2023-01-18T09:57:27.924Z,21.55
2023-01-18T09:59:55.613Z,20.15
2023-01-18T10:02:24.370Z,19.70
2023-01-18T10:04:54.316Z,20.08
2023-01-18T10:07:22.384Z,19.25
2023-01-18T10:09:50.954Z,19.70
2023-01-18T10:12:23.245Z,21.25
2023-01-18T10:14:52.199Z,20.13
2023-01-18T10:17:19.477Z,18.92
2023-01-18T10:19:45.974Z,18.73
2023-01-18T10:22:18.668Z,18.08
2023-01-18T10:24:49.820Z,19.30
2023-01-18T10:27:26.134Z,17.17
2023-01-18T10:29:57.814Z,18.10
2023-01-18T10:32:25.593Z,17.63
2023-01-18T10:34:52.225Z,17.10
2023-01-18T10:37:23.186Z,17.25
2023-01-18T10:39:51.085Z,16.92
2023-01-18T10:42:18.848Z,15.65
2023-01-18T10:44:46.721Z,17.27
2023-01-18T10:47:17.675Z,18.15
2023-01-18T10:49:45.214Z,16.10
2023-01-18T10:52:19.496Z,16.70
2023-01-18T10:54:49.823Z,15.68
2023-01-18T10:57:19.581Z,16.35
2023-01-18T10:59:50.599Z,16.65
2023-01-18T11:02:19.392Z,16.60
2023-01-18T11:04:46.050Z,16.52
2023-01-18T11:07:12.555Z,16.70
2023-01-18T11:09:43.009Z,15.32
2023-01-18T11:12:17.749Z,16.80
2023-01-18T11:14:44.244Z,13.82
2023-01-18T11:17:12.596Z,16.35
2023-01-18T11:19:39.022Z,15.73
2023-01-18T11:22:11.077Z,15.40
2023-01-18T11:24:38.382Z,16.15
2023-01-18T11:27:06.137Z,16.13
2023-01-18T11:29:34.421Z,16.35
2023-01-18T11:32:02.003Z,14.93
2023-01-18T11:34:31.867Z,14.20
2023-01-18T11:36:58.849Z,14.40
2023-01-18T11:39:27.298Z,14.48
2023-01-18T11:42:12.045Z,15.52
2023-01-18T11:44:39.879Z,14.93
2023-01-18T11:47:10.138Z,15.02
2023-01-18T11:49:42.783Z,14.90
2023-01-18T11:52:13.012Z,15.25
2023-01-18T11:54:43.236Z,14.73
2023-01-18T11:57:10.614Z,15.32
2023-01-18T11:59:39.183Z,14.48
2023-01-18T12:02:18.750Z,14.88
2023-01-18T12:04:54.133Z,14.82
2023-01-18T12:07:29.206Z,13.73
2023-01-18T12:09:56.203Z,14.82
2023-01-18T12:12:34.695Z,14.85
2023-01-18T12:15:11.392Z,14.73
2023-01-18T12:17:46.050Z,15.20
2023-01-18T12:20:19.796Z,14.20
2023-01-18T12:22:58.814Z,14.13
2023-01-18T12:25:32.574Z,13.85
2023-01-18T12:28:03.836Z,13.23
2023-01-18T12:30:40.116Z,12.90
2023-01-18T12:33:15.974Z,11.65
2023-01-18T12:35:58.023Z,12.35
2023-01-18T12:38:27.473Z,12.47
2023-01-18T12:41:12.641Z,12.75
2023-01-18T12:43:43.160Z,11.40
2023-01-18T12:46:11.297Z,11.70
2023-01-18T12:48:41.386Z,11.98
2023-01-18T12:51:11.186Z,11.18
2023-01-18T12:53:41.937Z,10.88
2023-01-18T12:56:13.296Z,11.38
2023-01-18T12:58:40.082Z,11.45
2023-01-18T13:01:09.672Z,10.27
2023-01-18T13:03:39.151Z,10.27
2023-01-18T13:06:05.791Z,10.27
2023-01-18T13:08:35.862Z,9.70
2023-01-18T13:11:05.279Z,10.45
2023-01-18T13:13:31.838Z,11.00
2023-01-18T13:16:01.524Z,9.00
2023-01-18T13:18:30.359Z,9.35
2023-01-18T13:21:04.762Z,9.75
2023-01-18T13:23:38.492Z,8.30
2023-01-18T13:26:10.200Z,8.35
2023-01-18T13:28:36.756Z,7.85
2023-01-18T13:31:03.420Z,8.93
2023-01-18T13:33:31.029Z,8.40
2023-01-18T13:36:01.220Z,7.78
2023-01-18T13:38:40.678Z,7.03
2023-01-18T13:41:10.029Z,6.88
2023-01-18T13:43:55.091Z,8.02
2023-01-18T13:46:22.770Z,6.57
2023-01-18T13:48:49.947Z,7.30
2023-01-18T13:51:40.452Z,7.35
2023-01-18T13:54:07.335Z,6.93
2023-01-18T13:56:35.674Z,6.70
2023-01-18T13:59:17.836Z,6.82
2023-01-18T14:01:45.798Z,6.77
2023-01-18T14:04:27.100Z,6.53
2023-01-18T14:06:54.163Z,6.53
2023-01-18T14:09:29.117Z,6.22
2023-01-18T14:11:57.446Z,6.82
2023-01-18T14:14:25.537Z,6.28
2023-01-18T14:16:57.547Z,6.00
2023-01-18T14:19:24.557Z,6.15
2023-01-18T14:22:11.350Z,5.82
2023-01-18T14:24:45.888Z,5.70
2023-01-18T14:27:16.040Z,5.88
2023-01-18T14:29:48.925Z,5.13
2023-01-18T14:34:41.998Z,5.30
2023-01-18T14:37:23.607Z,4.80
2023-01-18T14:40:01.995Z,4.72
2023-01-18T14:42:29.850Z,4.75
2023-01-18T14:44:59.168Z,4.93
2023-01-18T14:47:27.935Z,3.75
2023-01-18T14:49:54.322Z,4.38
2023-01-18T14:52:23.283Z,3.65
2023-01-18T14:54:52.022Z,3.83
2023-01-18T14:57:18.486Z,3.25
2023-01-18T14:59:51.240Z,3.60
2023-01-18T15:04:44.311Z,3.40
2023-01-18T15:07:14.433Z,3.47
2023-01-18T15:09:41.564Z,3.00
2023-01-18T15:12:09.986Z,3.30
2023-01-18T15:14:37.699Z,3.50
2023-01-18T15:17:08.303Z,3.35
2023-01-18T15:19:37.287Z,3.28
2023-01-18T15:22:03.817Z,3.35
2023-01-18T15:24:33.884Z,3.15
2023-01-18T15:27:02.116Z,2.65
2023-01-18T15:29:30.960Z,3.45
2023-01-18T15:31:58.286Z,3.10
2023-01-18T15:34:28.599Z,2.63
2023-01-18T15:36:55.650Z,3.25
2023-01-18T15:39:22.076Z,3.22
2023-01-18T15:41:49.637Z,3.40
2023-01-18T15:44:32.364Z,3.00
2023-01-18T15:46:58.890Z,3.17
2023-01-18T15:49:25.365Z,3.00
2023-01-18T15:51:53.234Z,3.10
2023-01-18T15:54:21.241Z,2.70
2023-01-18T15:56:48.028Z,3.58
2023-01-18T15:59:18.052Z,3.35
2023-01-18T16:01:44.690Z,3.70
2023-01-18T16:04:19.518Z,3.50
2023-01-18T16:06:46.014Z,3.58
2023-01-18T16:09:19.919Z,3.33
2023-01-18T16:11:47.441Z,3.88
2023-01-18T16:14:21.532Z,3.90
2023-01-18T16:16:48.024Z,4.32
2023-01-18T16:19:19.261Z,3.85
2023-01-18T16:21:47.396Z,4.18
2023-01-18T16:24:19.601Z,4.30
2023-01-18T16:26:46.198Z,4.22
2023-01-18T16:29:12.677Z,3.90
2023-01-18T16:31:40.276Z,4.80
2023-01-18T16:34:16.582Z,4.03
2023-01-18T16:36:43.191Z,4.55
2023-01-18T16:39:09.650Z,4.25
2023-01-18T16:41:37.495Z,4.28
2023-01-18T16:44:04.145Z,3.72
2023-01-18T16:46:30.679Z,3.90
2023-01-18T16:48:57.091Z,4.60
2023-01-18T16:51:23.601Z,4.30
2023-01-18T16:53:50.033Z,4.68
2023-01-18T16:56:16.691Z,4.20
2023-01-18T16:58:44.389Z,4.25
2023-01-18T17:01:11.974Z,3.80
2023-01-18T17:03:38.378Z,4.00
2023-01-18T17:06:04.923Z,4.55
2023-01-18T17:08:31.338Z,4.90
2023-01-18T17:10:57.774Z,4.38
2023-01-18T17:13:24.459Z,4.47
2023-01-18T17:15:52.987Z,4.28
2023-01-18T17:18:20.727Z,4.57
2023-01-18T17:20:47.148Z,3.75
2023-01-18T17:23:13.632Z,4.22
2023-01-18T17:25:40.049Z,3.88
2023-01-18T17:28:06.439Z,4.30
2023-01-18T17:30:32.908Z,4.05
2023-01-18T17:33:01.189Z,4.93
2023-01-18T17:35:27.975Z,4.65
2023-01-18T17:38:00.998Z,4.32
2023-01-18T17:40:40.172Z,3.97
2023-01-18T17:43:10.347Z,4.22
2023-01-18T17:45:36.797Z,4.78
2023-01-18T17:48:04.845Z,4.68
2023-01-18T17:50:31.385Z,4.68
2023-01-18T17:52:58.086Z,4.22
2023-01-18T17:55:34.260Z,4.75
2023-01-18T17:58:01.071Z,5.32
2023-01-18T18:00:27.631Z,4.25
2023-01-18T18:02:54.363Z,4.63
2023-01-18T18:05:22.251Z,4.25
2023-01-18T18:07:48.745Z,4.65
2023-01-18T18:10:15.648Z,4.70
2023-01-18T18:12:42.277Z,4.75
2023-01-18T18:15:08.840Z,4.78
2023-01-18T18:17:35.651Z,5.28
2023-01-18T18:20:02.254Z,5.28
2023-01-18T18:22:30.149Z,5.20
2023-01-18T18:24:56.539Z,5.80
2023-01-18T18:27:24.789Z,5.13
2023-01-18T18:29:53.179Z,5.32
2023-01-18T18:32:19.621Z,5.72
2023-01-18T18:34:46.017Z,5.90
2023-01-18T18:37:12.410Z,5.72
2023-01-18T18:39:40.211Z,5.25
2023-01-18T18:42:06.554Z,5.38
2023-01-18T18:44:32.964Z,5.30
2023-01-18T18:46:59.378Z,5.53
2023-01-18T18:49:25.757Z,5.80
2023-01-18T18:51:52.120Z,5.03
2023-01-18T18:54:18.638Z,5.90
2023-01-18T18:56:46.385Z,5.82
2023-01-18T18:59:12.919Z,6.15
2023-01-18T19:01:39.491Z,6.15
2023-01-18T19:04:06.157Z,5.60
2023-01-18T19:06:32.640Z,7.05
2023-01-18T19:08:59.398Z,6.10
2023-01-18T19:11:25.836Z,6.70
2023-01-18T19:13:54.091Z,6.93
2023-01-18T19:16:20.754Z,6.60
2023-01-18T19:18:48.155Z,6.22
2023-01-18T19:21:14.674Z,6.80
2023-01-18T19:23:41.522Z,7.07
2023-01-18T19:26:07.909Z,6.40
2023-01-18T19:28:34.399Z,6.30
2023-01-18T19:31:02.955Z,6.45
2023-01-18T19:33:29.413Z,6.80
2023-01-18T19:35:55.816Z,6.60
2023-01-18T19:38:22.203Z,6.63
2023-01-18T19:40:48.710Z,7.50
2023-01-18T19:43:15.320Z,7.20
2023-01-18T19:45:41.932Z,7.95
2023-01-18T19:48:09.725Z,7.30
2023-01-18T19:50:36.208Z,7.57
2023-01-18T19:53:02.950Z,7.28
2023-01-18T19:55:29.419Z,7.38
2023-01-18T19:57:56.340Z,7.72
2023-01-18T20:00:22.933Z,7.40
2023-01-18T20:02:49.459Z,6.65
2023-01-18T20:05:17.201Z,8.27
2023-01-18T20:07:43.737Z,7.70
2023-01-18T20:10:10.664Z,7.68
2023-01-18T20:12:37.100Z,7.45
2023-01-18T20:15:03.828Z,6.85
2023-01-18T20:17:30.436Z,7.55
2023-01-18T20:19:56.838Z,7.85
2023-01-18T20:22:24.798Z,8.38
2023-01-18T20:24:51.233Z,7.88
2023-01-18T20:27:17.757Z,8.40
2023-01-18T20:29:44.225Z,8.25
2023-01-18T20:32:16.197Z,8.80
2023-01-18T20:34:43.331Z,8.35
2023-01-18T20:37:10.475Z,7.32
2023-01-18T20:39:38.341Z,8.38
2023-01-18T20:42:04.812Z,7.85
2023-01-18T20:44:31.291Z,8.40
2023-01-18T20:46:57.648Z,9.15
2023-01-18T20:49:33.132Z,8.43
2023-01-18T20:52:04.068Z,8.82
2023-01-18T20:54:30.454Z,9.27
2023-01-18T20:56:58.255Z,9.65
2023-01-18T20:59:24.799Z,8.82
2023-01-18T21:01:51.328Z,9.48
2023-01-18T21:04:17.909Z,9.52
2023-01-18T21:06:44.346Z,9.68
2023-01-18T21:09:10.752Z,10.68
2023-01-18T21:11:37.206Z,9.57
2023-01-18T21:14:04.985Z,10.43
2023-01-18T21:16:31.427Z,9.90
2023-01-18T21:18:57.863Z,10.73
2023-01-18T21:21:24.425Z,10.60
2023-01-18T21:23:50.867Z,10.98
2023-01-18T21:26:17.318Z,10.13
2023-01-18T21:28:43.947Z,10.48
2023-01-18T21:31:11.909Z,10.43
2023-01-18T21:33:38.272Z,10.95
2023-01-18T21:36:06.017Z,10.40
2023-01-18T21:38:32.507Z,11.43
2023-01-18T21:40:59.066Z,10.38
2023-01-18T21:43:25.595Z,10.15
2023-01-18T21:45:53.007Z,12.13
2023-01-18T21:48:20.832Z,10.85
2023-01-18T21:50:47.276Z,11.32
2023-01-18T21:53:13.911Z,10.38
2023-01-18T21:55:40.440Z,11.20
2023-01-18T21:58:07.000Z,11.65
2023-01-18T22:00:35.887Z,11.32
2023-01-18T22:03:02.314Z,11.57
2023-01-18T22:05:30.159Z,11.60
2023-01-18T22:07:56.674Z,11.65
2023-01-18T22:10:23.380Z,10.27
2023-01-18T22:12:49.773Z,11.25
2023-01-18T22:15:16.332Z,11.57
2023-01-18T22:17:42.711Z,11.52
2023-01-18T22:20:09.858Z,11.52
2023-01-18T22:22:37.650Z,11.63
2023-01-18T22:25:04.488Z,11.65
2023-01-18T22:27:30.827Z,11.00
2023-01-18T22:29:57.396Z,12.27
2023-01-18T22:32:23.749Z,11.57
2023-01-18T22:34:50.134Z,11.77
2023-01-18T22:37:16.487Z,11.85
2023-01-18T22:39:44.275Z,11.77
2023-01-18T22:42:10.667Z,12.38
2023-01-18T22:44:37.055Z,12.57
2023-01-18T22:47:03.616Z,12.35
2023-01-18T22:49:29.947Z,12.10
2023-01-18T22:51:56.361Z,12.55
2023-01-18T22:54:22.807Z,12.18
2023-01-18T22:56:50.634Z,11.07
2023-01-18T22:59:17.026Z,11.65
2023-01-18T23:01:43.365Z,12.40
2023-01-18T23:04:09.815Z,12.80
2023-01-18T23:06:36.156Z,12.02
2023-01-18T23:09:02.628Z,12.38
2023-01-18T23:11:29.801Z,10.95
2023-01-18T23:13:57.683Z,12.45
2023-01-18T23:16:24.123Z,11.77
2023-01-18T23:18:50.483Z,11.85
2023-01-18T23:21:16.945Z,12.35
2023-01-18T23:23:43.368Z,12.65
2023-01-18T23:26:10.051Z,12.30
2023-01-18T23:28:36.471Z,13.00
2023-01-18T23:31:04.398Z,11.73
2023-01-18T23:33:30.874Z,12.85
2023-01-18T23:35:57.237Z,12.43
2023-01-18T23:38:23.682Z,12.82
2023-01-18T23:40:50.087Z,13.85
2023-01-18T23:43:16.469Z,12.90
2023-01-18T23:45:42.924Z,12.15
2023-01-18T23:48:11.455Z,11.02
2023-01-18T23:50:37.910Z,13.88
2023-01-18T23:53:04.343Z,13.43
2023-01-18T23:55:30.781Z,13.85
2023-01-18T23:57:57.343Z,13.50
